Overview Statistics Trail Chart Weather Telemetry Raw packets
 

This is the latest recevied telemetry packets stored in our database for station/object DO7RSR-12. If no packets are shown the sender has not sent any telemetry packets the latest 10 day(s).

Telemetry packets is used to share measurements like repeteater parameters, battery voltage, radiation readings (or any other measurements).

<< 1 2 3 4 >>
Time Press* Temp.in* Hum* QNH* Temp.out*
1788572231 1003.4 hPa 24.7 C deg 56.3 % 1026.3 hPa 0 C deg
1788570419 1002.7 hPa 24.9 C deg 55 % 1025.5 hPa 0 C deg
1788570416 1002.7 hPa 24.9 C deg 55 % 1025.5 hPa 0 C deg
1788568601 1002.5 hPa 25 C deg 55.1 % 1025.3 hPa 0 C deg
1788566788 1002 hPa 25 C deg 54.9 % 1024.9 hPa 0 C deg
1788566786 1002 hPa 25 C deg 54.9 % 1024.9 hPa 0 C deg
1788564971 1001.8 hPa 25.1 C deg 54.3 % 1024.6 hPa 0 C deg
1788563156 1001.6 hPa 25.1 C deg 54 % 1024.4 hPa 0 C deg
1788561344 1001.4 hPa 25.2 C deg 53.6 % 1024.2 hPa 0 C deg
1788561341 1001.4 hPa 25.2 C deg 53.6 % 1024.2 hPa 0 C deg
1788559525 1001 hPa 25.2 C deg 52.6 % 1023.8 hPa 0 C deg
1788557710 1000.3 hPa 25.3 C deg 51.5 % 1023.1 hPa 0 C deg
1788555908 999.6 hPa 25.4 C deg 51.3 % 1022.4 hPa 0 C deg
1788555895 999.6 hPa 25.4 C deg 51.3 % 1022.4 hPa 0 C deg
1788554080 999.5 hPa 25.4 C deg 50.8 % 1022.3 hPa 0 C deg
1788552268 999.3 hPa 25.4 C deg 51.9 % 1022 hPa 0 C deg
1788552265 999.3 hPa 25.4 C deg 51.9 % 1022 hPa 0 C deg
1788550465 999.2 hPa 25.4 C deg 54.3 % 1021.9 hPa 0 C deg
1788550450 999.2 hPa 25.4 C deg 54.3 % 1021.9 hPa 0 C deg
1788548635 998.9 hPa 25.3 C deg 54.4 % 1021.6 hPa 0 C deg
1788546825 998.5 hPa 25.3 C deg 54.4 % 1021.2 hPa 0 C deg
1788546819 998.5 hPa 25.3 C deg 54.4 % 1021.2 hPa 0 C deg
1788545004 998.2 hPa 25.2 C deg 54.4 % 1020.9 hPa 0 C deg
1788543189 997.8 hPa 25.2 C deg 54.5 % 1020.5 hPa 0 C deg
1788541374 997.8 hPa 25.1 C deg 54.6 % 1020.5 hPa 0 C deg
*Used Equation Coefficients:
Press: 0, 1, 0
Temp.in: 0, 1, 0
Hum: 0, 1, 0
QNH: 0, 1, 0
Temp.out: 0, 1, 0

  • The parameter names for the analog channels will be Value1, Value2, Value3 (up to Value5) if station has not sent a PARAM-packet that specifies the parameter names for each analog channel.
  • Each analog value is a decimal number between 000 and 255 (according to APRS specifications). The receiver use the telemetry equation coefficientsto to restore the original sensor values. If no EQNS-packet with equation coefficients is sent we will show the values as is (this corresponds to the equation coefficients a=0, b=1 and c=0).
    The sent equation coefficients is used in the equation: a * value2 + b * value + c.
  • The units for the analog values will not be shown if station has not sent a UNIT-packet specifying what unit's to use.
  • The parameter names for the digital bits will be Bit1, Bit2, Bit3 (up to Bit8) if station has not sent a PARAM-packet that specifies the parameter names for each digital bit.
  • All bit labels will be named "On" if station has not sent a UNIT-packet that specifies the label of each bit.
  • A bit is considered to be On when the bit is 1 if station has not sent a BITS-packet that specifies another "Bit sense" (a BITS-packet specify the state of the bits that match the BIT labels)